Here is the Quick Look data you requested

The Data originates at the National Weather Service, and is made available here by the UAlbany Department of Atmospheric and Environmental Sciences

Surface Observations

KFAF 151855Z VRB06KT 7SM CLR 35/20 A2992=
KFAF 151955Z VRB06KT 7SM CLR 36/20 A2991=
KFAF 152055Z VRB06KT 7SM CLR 35/22 A2989=
KFAF 152155Z VRB06KT 7SM CLR 35/21 A2988=
KFAF 152255Z VRB06KT 7SM CLR 35/21 A2989=
KFAF 152355Z VRB06KT 7SM CLR 35/22 A2989=
KFAF 160055Z VRB05KT CLR 33/23 A2989=
KFAF 160155Z VRB06KT CLR 32/23 A2989=
KFAF 160955Z 22006KT 10SM CLR 26/21 A2990=
KFAF 161130Z 23006KT 10SM CLR 27/23 A2990=
KFAF 161155Z 23008KT 10SM FEW220 27/22 A2990=
KFAF 161255Z 20008KT 10SM FEW240 27/23 A2994=
KFAF 161355Z 21008KT 10SM SCT018 27/23 A2992=
KFAF 161455Z 20008KT 10SM SCT018 29/23 A2992=
KFAF 161555Z 21008KT 10SM SCT230 31/23 A2991=
KFAF 161655Z 20010KT 10SM FEW200 32/24 A2991=
KFAF 161755Z 20010KT 10SM FEW200 34/24 A2993 RMK SLPNO WND DATA ESTMD ALSTG
 ESTMD=
KFAF 161855Z 20008KT 7SM FEW200 34/23 A2996 RMK SLPNO WND DATA ESTMD ALSTG
 ESTMD=

Decoded Surface Observations


The weather observed at FT EUSTIS/FELKER, VA (KFAF) at 02:55 PM EDT was:
  The skies were clear.
  Temperature: 95F ( 35C)  Dewpoint:  68F ( 20C)  Relative Humidity:  42%
  Winds from the VRB(VRB degs) at  7 mph.
  Altimeter:29.92 inches of mercury.
  The prevailing visibility was 7 miles.

The weather observed at FT EUSTIS/FELKER, VA (KFAF) at 03:55 PM EDT was:
  The skies were clear.
  Temperature: 97F ( 36C)  Dewpoint:  68F ( 20C)  Relative Humidity:  39%
  Winds from the VRB(VRB degs) at  7 mph.
  Altimeter:29.91 inches of mercury.
  The prevailing visibility was 7 miles.

The weather observed at FT EUSTIS/FELKER, VA (KFAF) at 04:55 PM EDT was:
  The skies were clear.
  Temperature: 95F ( 35C)  Dewpoint:  72F ( 22C)  Relative Humidity:  47%
  Winds from the VRB(VRB degs) at  7 mph.
  Altimeter:29.89 inches of mercury.
  The prevailing visibility was 7 miles.

The weather observed at FT EUSTIS/FELKER, VA (KFAF) at 05:55 PM EDT was:
  The skies were clear.
  Temperature: 95F ( 35C)  Dewpoint:  70F ( 21C)  Relative Humidity:  44%
  Winds from the VRB(VRB degs) at  7 mph.
  Altimeter:29.88 inches of mercury.
  The prevailing visibility was 7 miles.

The weather observed at FT EUSTIS/FELKER, VA (KFAF) at 06:55 PM EDT was:
  The skies were clear.
  Temperature: 95F ( 35C)  Dewpoint:  70F ( 21C)  Relative Humidity:  44%
  Winds from the VRB(VRB degs) at  7 mph.
  Altimeter:29.89 inches of mercury.
  The prevailing visibility was 7 miles.

The weather observed at FT EUSTIS/FELKER, VA (KFAF) at 07:55 PM EDT was:
  The skies were clear.
  Temperature: 95F ( 35C)  Dewpoint:  72F ( 22C)  Relative Humidity:  47%
  Winds from the VRB(VRB degs) at  7 mph.
  Altimeter:29.89 inches of mercury.
  The prevailing visibility was 7 miles.

The weather observed at FT EUSTIS/FELKER, VA (KFAF) at 08:55 PM EDT was:
  The skies were clear.
  Temperature: 91F ( 33C)  Dewpoint:  73F ( 23C)  Relative Humidity:  56%
  Winds from the VRB(VRB degs) at  6 mph.
  Altimeter:29.89 inches of mercury.

The weather observed at FT EUSTIS/FELKER, VA (KFAF) at 09:55 PM EDT was:
  The skies were clear.
  Temperature: 90F ( 32C)  Dewpoint:  73F ( 23C)  Relative Humidity:  59%
  Winds from the VRB(VRB degs) at  7 mph.
  Altimeter:29.89 inches of mercury.

The weather observed at FT EUSTIS/FELKER, VA (KFAF) at 05:55 AM EDT was:
  The skies were clear.
  Temperature: 79F ( 26C)  Dewpoint:  70F ( 21C)  Relative Humidity:  74%
  Winds from the SW (220 degs) at  7 mph.
  Altimeter:29.90 inches of mercury.
  The prevailing visibility was 10 miles.

The weather observed at FT EUSTIS/FELKER, VA (KFAF) at 07:30 AM EDT was:
  The skies were clear.
  Temperature: 81F ( 27C)  Dewpoint:  73F ( 23C)  Relative Humidity:  79%
  Winds from the SW (230 degs) at  7 mph.
  Altimeter:29.90 inches of mercury.
  The prevailing visibility was 10 miles.

The weather observed at FT EUSTIS/FELKER, VA (KFAF) at 07:55 AM EDT was:
  The skies were mostly clear.
  Temperature: 81F ( 27C)  Dewpoint:  72F ( 22C)  Relative Humidity:  74%
  Winds from the SW (230 degs) at  9 mph.
  Altimeter:29.90 inches of mercury.
  The prevailing visibility was 10 miles.

The weather observed at FT EUSTIS/FELKER, VA (KFAF) at 08:55 AM EDT was:
  The skies were mostly clear.
  Temperature: 81F ( 27C)  Dewpoint:  73F ( 23C)  Relative Humidity:  79%
  Winds from the SSW(200 degs) at  9 mph.
  Altimeter:29.94 inches of mercury.
  The prevailing visibility was 10 miles.

The weather observed at FT EUSTIS/FELKER, VA (KFAF) at 09:55 AM EDT was:
  The skies were partly cloudy.
  Temperature: 81F ( 27C)  Dewpoint:  73F ( 23C)  Relative Humidity:  79%
  Winds from the SW (210 degs) at  9 mph.
  Altimeter:29.92 inches of mercury.
  The prevailing visibility was 10 miles.

The weather observed at FT EUSTIS/FELKER, VA (KFAF) at 10:55 AM EDT was:
  The skies were partly cloudy.
  Temperature: 84F ( 29C)  Dewpoint:  73F ( 23C)  Relative Humidity:  70%
  Winds from the SSW(200 degs) at  9 mph.
  Altimeter:29.92 inches of mercury.
  The prevailing visibility was 10 miles.

The weather observed at FT EUSTIS/FELKER, VA (KFAF) at 11:55 AM EDT was:
  The skies were partly cloudy.
  Temperature: 88F ( 31C)  Dewpoint:  73F ( 23C)  Relative Humidity:  62%
  Winds from the SW (210 degs) at  9 mph.
  Altimeter:29.91 inches of mercury.
  The prevailing visibility was 10 miles.

The weather observed at FT EUSTIS/FELKER, VA (KFAF) at 12:55 PM EDT was:
  The skies were mostly clear.
  Temperature: 90F ( 32C)  Dewpoint:  75F ( 24C)  Relative Humidity:  63%
  Winds from the SSW(200 degs) at 12 mph.
  Altimeter:29.91 inches of mercury.
  The prevailing visibility was 10 miles.

The weather observed at FT EUSTIS/FELKER, VA (KFAF) at 01:55 PM EDT was:
  The skies were mostly clear.
  Temperature: 93F ( 34C)  Dewpoint:  75F ( 24C)  Relative Humidity:  56%
  Winds from the SSW(200 degs) at 12 mph.
  Altimeter:29.93 inches of mercury.
  The prevailing visibility was 10 miles.

The weather observed at FT EUSTIS/FELKER, VA (KFAF) at 02:55 PM EDT was:
  The skies were mostly clear.
  Temperature: 93F ( 34C)  Dewpoint:  73F ( 23C)  Relative Humidity:  53%
  Winds from the SSW(200 degs) at  9 mph.
  Altimeter:29.96 inches of mercury.
  The prevailing visibility was 7 miles.

Short Range Forecast

Sorry no data found for faf
Make sure faf is a valid station
You might need to specify a nearby major city
Try Again

Zone Forecast

Sorry no data found for faf
Make sure faf is a valid station
You might need to specify a nearby major city
Try Again

State Forecast

Sorry no data found for faf
Make sure faf is a valid station
You might need to specify a nearby major city
Try Again

State Forecast Discussion

Sorry no data found for faf
Make sure faf is a valid station
You might need to specify a nearby major city
Try Again

GFS Short-Range Model Output Statistics (MOS) Forecast

KFAF   GFS MOS GUIDANCE    7/16/2024  1200 UTC
DT /JULY 16/JULY 17                /JULY 18                /JULY 19
HR   18 21 00 03 06 09 12 15 18 21 00 03 06 09 12 15 18 21 00 06 12
N/X                    80          95          76          84    71
TMP  95 98 92 86 83 81 82 89 93 92 87 81 79 77 77 79 82 81 78 73 75
DPT  74 74 75 75 74 74 75 76 76 76 75 75 75 74 74 74 73 72 72 71 70
CLD  SC SC SC SC SC FW BK SC SC BK OV OV OV OV OV OV OV OV OV OV OV
WDR  21 22 20 20 21 20 21 22 21 20 21 23 22 25 28 31 34 06 10 26 01
WSP  09 09 07 08 06 06 07 09 09 10 12 07 07 05 03 04 04 04 04 01 05
P06         0     3     8     8    43    41    26    33    50 35 17
P12                     8          43          57          60    40
Q06         0     0     0     0     1     1     0     1     2  1  0
Q12                     0           1           2           3     1
T06     24/24 16/10  4/ 1  8/ 1 42/27 28/ 7 16/ 1 19/ 0 28/13  8/ 0
T12           31/24        9/ 3       55/29       27/ 2    34/13
CIG   8  8  8  8  8  8  8  8  8  8  8  7  8  4  4  4  6  6  6  7  7
VIS   7  7  7  7  7  7  7  7  7  7  7  7  7  7  7  7  7  7  7  5  7
OBV   N  N  N  N  N  N  N  N  N  N  N  N  N  N  N  N  N  N  N BR  N

GFS Long-Range Model Output Statistics (MOS) Forecast

KFAF   GFSX MOS GUIDANCE   7/16/2024  1200 UTC
FHR  24  36| 48  60| 72  84| 96 108|120 132|144 156|168 180|192
     WED 17| THU 18| FRI 19| SAT 20| SUN 21| MON 22| TUE 23|WED CLIMO
N/X  80  95| 76  84| 71  85| 73  87| 73  89| 74  88| 74  90| 76 69 88
TMP  82  87| 77  78| 75  79| 77  80| 76  81| 77  81| 77  82| 79
DPT  75  75| 74  72| 70  69| 71  71| 73  74| 73  73| 73  73| 74
CLD  PC  OV| OV  OV| OV  OV| OV  OV| OV  OV| OV  OV| OV  PC| PC
WND   8  12| 12   4|  5   6|  4   6|  3   5|  5   5|  4   6|  4
P12   8  43| 57  60| 40  24| 16  41| 28  41| 42  39| 35  34| 26999999
P24      43|     78|     45|     41|     55|     59|     57|       35
Q12   0   1|  2   3|  1   0|  0   1|  0   2|  3   4|       |
Q24       0|      4|      1|      0|      2|      4|       |
T12  16  42| 31  37| 22  15|  7  25| 22  41| 28  36| 24  33| 21
T24        | 56    | 40    | 15    | 33    | 53    | 42    | 35

NGM Model Output Statistics (MOS) Forecast

Climatological Summary

Sorry no data found for faf
Make sure faf is a valid station
You might need to specify a nearby major city
Try Again

Watch and Warning Statment

Sorry no data found for faf
Make sure faf is a valid station
You might need to specify a nearby major city
or it could be THERE ARE NO WATCHES OR WARNINGS for faf
Try Again

Park/Ski Recreation Report/Forecast

Sorry no data found for faf
Make sure faf is a valid station
You might need to specify a nearby major city
Try Again